Sabinsville, PA

23:35 EDT 25. Říjen 2014 (GMT -0400)
Wellsville Municipal-Tarantine | Change Station
CLOSE
Current Station
Letiště
Location: Wellsville,
Nadmořská výška: 2123 ft
Poblíž povětrnostní stanice

Výška 2123 ft 42.11 °N, 77.98 °W | Updated 39 minutes ago

Částečně oblačno
Částečně oblačno
52 °F
Pocit jako 52 °F
S
9
Vítr proměnlivý Vítr od západní

Dnes
Vysoké -- | Nízké -- °F
--% Možnost srážek
Včera
Vysoké -- | Nízké -- °F
Precip. -- inčů
7:34 AM 6:13 PM
Dorůstající srpek, 5% visible
Tlak 29.64 inčů
Viditelnost 10.0 mílí
Zataženo Polojasno 6500 ft
Polojasno 7500 ft
Rosný bod 44 °F
Vlhkost 74%
Dešťové srážky 0.00 inčů
Sněhová pokrývka Není k dispozici
UV záření 0 ze 12
Pyl 1.50 ze 12
Kvalita ovzduší Není k dispozici
Flu Activity Sporadic
METAR KELZ 260256Z AUTO 26008KT 10SM SCT065 SCT075 11/07 A2964 RMK AO2 SLP036 T01110067 58015

More Conditions Fewer Conditions

Tlak 29.64 inčů
Viditelnost 10.0 mílí
Zataženo Polojasno 6500 ft
Polojasno 7500 ft
Rosný bod 44 °F
Vlhkost 74%
Dešťové srážky 0.00 inčů
Sněhová pokrývka Není k dispozici
UV záření 0 ze 12
Pyl 1.50 ze 12
Kvalita ovzduší Není k dispozici
Flu Activity Sporadic
METAR KELZ 260256Z AUTO 26008KT 10SM SCT065 SCT075 11/07 A2964 RMK AO2 SLP036 T01110067 58015

More Conditions Fewer Conditions

10-Day Weather Forecast

Almanac

Astronomie

Oct. 25, 2014 Východ Západ
Skutečný čas 07:34 EDT 18:13 EDT
Občanský soumrak 07:05 EDT 18:42 EDT
Námořní soumrak 06:32 EDT 19:14 EDT
Astronomický soumrak 06:00 EDT 19:47 EDT
Měsíc 09:12 EDT (10/25) 19:33 EDT (10/25)
Délka denního světla 11h 36m
Délka dne
10h 39m
Tomorrow will be 2m 36s shorter.
Dorůstající srpek, 5% of the Moon is Illuminated
Dnes
Dorůstající srpek
Říj 30
První čtvrť
Lis 6
Úplněk
Lis 14
Ubývající
Lis 22
Nov

Dnešní extrémy

State Highs State Lows

Community

WunderPhotos

Upload Photos

1,765,095 snímků staženo!

Nearby

Výška sněhu

Station Hloubka Nadmořská výška
Žádný nový sníh nebyl hlášen

Seizmická činnost

Město Distance Mag. Čas & datum
Žádné zemětřesení v okolí nebylo hlášeno
Minimální zobrazený rozsah je 2.5.

Pobřežní teplota vody

Lokalita Teplota
Stanice nic nehlásí

Poblíž povětrnostní stanice